CheckWX is a tool to help pilots better visualize weather data.  It is not intended as a substitute for an official pre-flight weather briefing.

00:16:26 UTC

KEKM METAR
Elkhart Municipal Airport
Elkhart, Indiana, USA
Current

10 hours ago

KEKM 181350Z 00000KT 10SM CLR 05/05 A3011 RMK AO2
Observed
Oct-18 @ 13:50 UTC
Visibility
10 SM
Flight Rules
VFR
Cloud Levels
  • Clear skies
Temperature
C / 41°F
Dewpoint
C / 41°F
Humidity
100%
Altimeter
30.11" Hg
Pressure
1019.62 hPa
Previous

11 hours ago

KEKM 181250Z 00000KT 10SM CLR 02/02 A3011 RMK AO2
Observed
Oct-18 @ 12:50 UTC
Visibility
10 SM
Flight Rules
VFR
Cloud Levels
  • Clear skies
Temperature
C / 36°F
Dewpoint
C / 36°F
Humidity
100%
Altimeter
30.11" Hg
Pressure
1019.62 hPa
Previous

12 hours ago

KEKM 181150Z 00000KT 10SM CLR 01/01 A3010 RMK AO2
Observed
Oct-18 @ 11:50 UTC
Visibility
10 SM
Flight Rules
VFR
Cloud Levels
  • Clear skies
Temperature
C / 34°F
Dewpoint
C / 34°F
Humidity
100%
Altimeter
30.1" Hg
Pressure
1019.32 hPa